Time;durP1;ratioP1;P1;durP2;ratioP2;P2;SDS_P1;SDS_P2;PMS_P1;PMS_P2;Temp;Humidity;BMP_temperature;BMP_pressure;BME280_temperature;BME280_humidity;BME280_pressure;Samples;Min_cycle;Max_cycle;Signal;HPM_P1;HPM_P2
2024/03/09 00:00:19;;;;;;;12.83;9.37;;;11.30;49.40;;;;;;5044615;28;20474;-60
2024/03/09 00:02:50;;;;;;;14.10;11.27;;;11.30;49.40;;;;;;5042425;28;20431;-58
2024/03/09 00:05:20;;;;;;;16.33;11.30;;;11.30;49.30;;;;;;5040888;28;20189;-62
2024/03/09 00:07:46;;;;;;;14.50;9.80;;;11.30;49.30;;;;;;5043124;28;20458;-59
2024/03/09 00:10:12;;;;;;;13.37;10.60;;;11.30;49.20;;;;;;5060051;28;20473;-61
2024/03/09 00:12:44;;;;;;;14.90;10.97;;;11.20;49.30;;;;;;5058077;28;20439;-58
2024/03/09 00:15:12;;;;;;;13.10;10.50;;;11.10;49.50;;;;;;5044276;28;20189;-58
2024/03/09 00:17:42;;;;;;;12.43;9.40;;;11.00;49.50;;;;;;5043388;28;20504;-60
2024/03/09 00:20:15;;;;;;;11.27;9.77;;;11.00;49.70;;;;;;5045919;28;20479;-59
2024/03/09 00:22:43;;;;;;;12.57;10.17;;;11.00;49.90;;;;;;5042168;28;20444;-64
2024/03/09 00:25:09;;;;;;;11.43;8.80;;;10.90;49.90;;;;;;5047764;28;20529;-61
2024/03/09 00:27:35;;;;;;;15.43;11.27;;;10.90;50.00;;;;;;5042735;28;20466;-63
2024/03/09 00:30:02;;;;;;;17.57;12.73;;;10.90;50.30;;;;;;5042357;28;20437;-59
2024/03/09 00:32:27;;;;;;;15.27;12.23;;;10.90;50.40;;;;;;5055680;28;20450;-64
2024/03/09 00:34:53;;;;;;;15.90;10.57;;;10.90;50.40;;;;;;5050211;28;20505;-63
2024/03/09 00:37:20;;;;;;;14.90;10.50;;;10.90;50.40;;;;;;5044170;28;20197;-58
2024/03/09 00:39:47;;;;;;;13.20;10.10;;;10.90;50.30;;;;;;5055614;28;20423;-62
2024/03/09 00:42:18;;;;;;;13.10;10.67;;;10.90;50.90;;;;;;5046983;28;20478;-60
2024/03/09 00:44:43;;;;;;;17.57;11.00;;;10.90;50.40;;;;;;5049143;28;20446;-63
2024/03/09 00:47:09;;;;;;;13.03;11.40;;;10.80;50.40;;;;;;5060757;28;20816;-64
2024/03/09 00:49:35;;;;;;;15.07;10.57;;;10.80;50.60;;;;;;5056823;28;20552;-64
2024/03/09 00:52:07;;;;;;;14.60;10.57;;;10.80;50.70;;;;;;5055293;28;20188;-57
2024/03/09 00:54:36;;;;;;;14.43;10.90;;;10.80;50.80;;;;;;5063988;28;20672;-61
2024/03/09 00:57:03;;;;;;;15.83;11.70;;;10.80;50.80;;;;;;5056960;28;20458;-65
2024/03/09 00:59:32;;;;;;;13.83;10.60;;;10.90;50.90;;;;;;5050655;28;20525;-61
2024/03/09 01:02:01;;;;;;;18.13;11.40;;;10.90;50.80;;;;;;5060067;28;20466;-63
2024/03/09 01:04:30;;;;;;;14.07;10.57;;;10.90;50.80;;;;;;5056869;28;20420;-58
2024/03/09 01:06:57;;;;;;;13.03;8.97;;;10.90;50.70;;;;;;5061732;28;20447;-60
2024/03/09 01:09:25;;;;;;;17.90;12.23;;;10.90;50.70;;;;;;5051779;28;20458;-63
2024/03/09 01:11:52;;;;;;;14.43;10.43;;;10.90;50.60;;;;;;5043344;28;20446;-61
2024/03/09 01:14:18;;;;;;;12.73;9.67;;;10.80;50.60;;;;;;5044395;28;20446;-64
2024/03/09 01:16:44;;;;;;;13.23;9.60;;;10.80;50.50;;;;;;5039639;28;20458;-59
2024/03/09 01:19:10;;;;;;;13.50;10.40;;;10.80;50.50;;;;;;5042150;28;20974;-58
2024/03/09 01:21:36;;;;;;;15.20;10.87;;;10.70;50.50;;;;;;5044614;28;20510;-70
2024/03/09 01:24:01;;;;;;;15.50;10.23;;;10.50;50.80;;;;;;5042479;28;20501;-64
2024/03/09 01:26:27;;;;;;;15.73;11.07;;;10.40;51.50;;;;;;5042948;28;20232;-59
2024/03/09 01:28:54;;;;;;;16.13;11.97;;;10.30;51.70;;;;;;5043557;28;20859;-58
2024/03/09 01:31:27;;;;;;;20.30;12.50;;;10.30;52.00;;;;;;5042183;28;20180;-61
2024/03/09 01:33:55;;;;;;;16.53;12.50;;;10.30;51.90;;;;;;5039178;28;20512;-62
2024/03/09 01:36:23;;;;;;;22.07;11.57;;;10.40;51.70;;;;;;5042885;28;20488;-57
2024/03/09 01:38:49;;;;;;;18.70;12.70;;;10.40;51.80;;;;;;5041553;28;20439;-60
2024/03/09 01:41:15;;;;;;;18.70;12.33;;;10.50;51.80;;;;;;5051492;28;20573;-62
2024/03/09 01:43:41;;;;;;;15.80;11.77;;;10.50;51.80;;;;;;5042778;28;20549;-63
2024/03/09 01:46:09;;;;;;;16.60;12.10;;;10.50;51.90;;;;;;5040540;28;20485;-61
2024/03/09 01:48:39;;;;;;;17.40;11.90;;;10.50;51.80;;;;;;5041435;28;20188;-59
2024/03/09 01:51:05;;;;;;;15.00;10.47;;;10.40;51.80;;;;;;5043268;28;20454;-62
2024/03/09 01:53:31;;;;;;;15.33;11.43;;;10.40;52.00;;;;;;5050606;28;20488;-60
2024/03/09 01:55:59;;;;;;;16.53;11.33;;;10.40;52.00;;;;;;5042055;28;20443;-60
2024/03/09 01:58:27;;;;;;;15.80;11.50;;;10.40;52.00;;;;;;5043238;28;20435;-62
2024/03/09 02:00:56;;;;;;;15.67;11.40;;;10.30;51.90;;;;;;5044376;28;20501;-63
2024/03/09 02:03:23;;;;;;;15.87;11.40;;;10.30;52.00;;;;;;5041847;28;20427;-64
2024/03/09 02:05:50;;;;;;;16.00;11.00;;;10.30;52.10;;;;;;5047990;28;20426;-61
2024/03/09 02:08:17;;;;;;;13.47;9.57;;;10.30;52.20;;;;;;5055313;28;20926;-64
2024/03/09 02:10:42;;;;;;;15.00;10.37;;;10.20;52.10;;;;;;5043963;28;20439;-59
2024/03/09 02:13:10;;;;;;;14.07;10.60;;;10.30;52.10;;;;;;5039789;28;20436;-65
2024/03/09 02:15:36;;;;;;;16.00;11.20;;;10.20;52.00;;;;;;5039844;28;20660;-59
2024/03/09 02:18:02;;;;;;;16.80;12.13;;;10.20;52.20;;;;;;5040744;28;20487;-68
2024/03/09 02:20:30;;;;;;;16.57;11.83;;;10.10;52.30;;;;;;5041266;28;20477;-61
2024/03/09 02:22:57;;;;;;;19.57;13.20;;;10.10;52.70;;;;;;5045141;28;20177;-57
2024/03/09 02:25:24;;;;;;;18.97;12.80;;;9.90;53.90;;;;;;5045782;28;20435;-61
2024/03/09 02:27:52;;;;;;;20.97;13.00;;;9.60;54.50;;;;;;5043141;28;20993;-64
2024/03/09 02:30:19;;;;;;;15.37;11.93;;;9.60;54.70;;;;;;5042543;28;20437;-59
2024/03/09 02:32:45;;;;;;;13.03;10.17;;;9.70;54.60;;;;;;5057452;28;20454;-63
2024/03/09 02:35:11;;;;;;;14.00;10.87;;;9.70;54.50;;;;;;5061636;28;20417;-63
2024/03/09 02:37:38;;;;;;;14.40;10.90;;;9.70;54.40;;;;;;5045650;28;22440;-62
2024/03/09 02:40:04;;;;;;;12.70;9.70;;;9.70;54.50;;;;;;5041771;28;20434;-63
2024/03/09 02:42:34;;;;;;;14.83;11.53;;;9.80;54.50;;;;;;5056062;28;20525;-62
2024/03/09 02:44:59;;;;;;;13.53;9.50;;;9.70;54.60;;;;;;5054818;28;20422;-58
2024/03/09 02:47:26;;;;;;;15.87;10.60;;;9.80;54.60;;;;;;5048882;28;20875;-60
2024/03/09 02:49:54;;;;;;;12.80;9.60;;;9.70;54.60;;;;;;5053068;28;20192;-57
2024/03/09 02:52:20;;;;;;;13.60;9.30;;;9.50;55.00;;;;;;5046710;28;21150;-58
2024/03/09 02:54:46;;;;;;;15.50;10.07;;;9.20;55.80;;;;;;5054109;28;20879;-63
2024/03/09 02:57:16;;;;;;;13.83;10.50;;;9.10;56.30;;;;;;5043519;28;20533;-62
2024/03/09 02:59:42;;;;;;;15.83;10.37;;;9.30;56.30;;;;;;5048953;28;20550;-61
2024/03/09 03:03:45;;;;;;;13.07;10.40;;;9.30;56.20;;;;;;5043247;28;20565;-58
2024/03/09 03:04:53;;;;;;;13.37;9.63;;;9.40;56.00;;;;;;5042305;28;20706;-64
2024/03/09 03:07:18;;;;;;;13.90;9.90;;;9.50;56.00;;;;;;5041250;28;20455;-57
2024/03/09 03:09:50;;;;;;;13.63;10.73;;;9.50;55.80;;;;;;5041124;28;20201;-57
2024/03/09 03:12:15;;;;;;;15.00;9.80;;;9.60;55.60;;;;;;5049747;28;20639;-62
2024/03/09 03:14:43;;;;;;;13.60;9.57;;;9.70;55.50;;;;;;5047840;28;20442;-64
2024/03/09 03:17:12;;;;;;;17.13;9.73;;;9.60;55.30;;;;;;5037826;28;20680;-61
2024/03/09 03:19:38;;;;;;;13.50;9.70;;;9.60;55.50;;;;;;5043022;28;20447;-64
2024/03/09 03:22:05;;;;;;;13.57;9.63;;;9.70;55.50;;;;;;5041151;28;20481;-61
2024/03/09 03:24:31;;;;;;;13.87;10.10;;;9.80;55.40;;;;;;5045137;28;21337;-56
2024/03/09 03:26:58;;;;;;;13.27;9.57;;;9.80;55.20;;;;;;5040003;28;20463;-63
2024/03/09 03:29:27;;;;;;;12.37;8.93;;;9.80;55.40;;;;;;5038997;28;20462;-63
2024/03/09 03:31:55;;;;;;;14.90;10.70;;;9.70;55.30;;;;;;5041442;28;20529;-57
2024/03/09 03:34:21;;;;;;;15.00;10.43;;;9.60;55.70;;;;;;5039565;28;20497;-58
2024/03/09 03:36:47;;;;;;;15.10;9.20;;;9.60;56.10;;;;;;5052195;28;20516;-66
2024/03/09 03:39:13;;;;;;;12.53;9.53;;;9.70;56.00;;;;;;5045096;28;20443;-58
2024/03/09 03:41:39;;;;;;;12.67;10.47;;;9.70;55.70;;;;;;5040919;28;22230;-58
2024/03/09 03:44:04;;;;;;;11.27;9.23;;;9.30;56.30;;;;;;5044821;28;20195;-65
2024/03/09 03:46:30;;;;;;;11.27;8.97;;;9.20;56.80;;;;;;5052557;28;20207;-62
2024/03/09 03:48:56;;;;;;;13.47;9.03;;;9.00;57.50;;;;;;5050192;28;20198;-60
2024/03/09 03:51:22;;;;;;;12.30;9.87;;;8.90;57.80;;;;;;5050634;28;20442;-63
2024/03/09 03:53:47;;;;;;;13.50;9.93;;;9.10;57.60;;;;;;5043701;28;20204;-64
2024/03/09 03:56:13;;;;;;;11.80;9.00;;;9.10;57.40;;;;;;5048967;28;20691;-62
2024/03/09 03:58:44;;;;;;;12.70;9.67;;;9.20;57.30;;;;;;5055554;28;20193;-62
2024/03/09 04:01:09;;;;;;;12.07;8.67;;;9.20;57.10;;;;;;5049088;28;20617;-61
2024/03/09 04:03:37;;;;;;;14.60;10.27;;;9.10;57.00;;;;;;5056714;28;20435;-56
2024/03/09 04:06:04;;;;;;;16.33;10.00;;;9.00;57.80;;;;;;5056896;28;20183;-61
2024/03/09 04:08:30;;;;;;;19.63;10.17;;;9.10;57.70;;;;;;5059477;28;20472;-60
2024/03/09 04:10:56;;;;;;;13.20;9.90;;;8.80;58.00;;;;;;5059735;28;20495;-64
2024/03/09 04:13:23;;;;;;;11.40;8.90;;;8.90;58.20;;;;;;5050020;28;20185;-62
2024/03/09 04:15:51;;;;;;;18.30;10.10;;;9.00;58.10;;;;;;5058101;28;20937;-58
2024/03/09 04:18:17;;;;;;;13.33;10.57;;;9.10;57.80;;;;;;5051322;28;20459;-58
2024/03/09 04:20:43;;;;;;;14.20;8.93;;;9.30;57.60;;;;;;5058571;28;20927;-56
2024/03/09 04:23:09;;;;;;;14.60;10.20;;;9.10;57.50;;;;;;5057105;28;20525;-60
2024/03/09 04:25:38;;;;;;;11.20;8.80;;;8.70;58.00;;;;;;5053409;28;20196;-57
2024/03/09 04:28:05;;;;;;;11.30;8.87;;;8.60;58.80;;;;;;5042763;28;20454;-61
2024/03/09 04:30:34;;;;;;;13.13;9.40;;;8.90;58.60;;;;;;5049279;28;20422;-59
2024/03/09 04:33:06;;;;;;;12.90;9.17;;;9.10;58.00;;;;;;5047466;28;20450;-64
2024/03/09 04:35:33;;;;;;;16.40;11.13;;;9.20;57.70;;;;;;5045220;28;20427;-60
2024/03/09 04:37:59;;;;;;;13.73;9.87;;;9.10;57.80;;;;;;5059621;28;20458;-60
2024/03/09 04:40:27;;;;;;;15.93;9.60;;;9.00;58.00;;;;;;5057719;28;21059;-60
2024/03/09 04:42:53;;;;;;;16.13;9.30;;;8.80;58.50;;;;;;5057016;28;20248;-61
2024/03/09 04:45:22;;;;;;;12.97;9.53;;;8.70;59.00;;;;;;5054392;28;20426;-65
2024/03/09 04:47:48;;;;;;;15.77;9.10;;;8.40;59.40;;;;;;5058061;28;20549;-58
2024/03/09 04:50:19;;;;;;;11.30;8.60;;;8.10;60.10;;;;;;5056925;28;20522;-57
2024/03/09 04:52:48;;;;;;;14.17;10.07;;;8.10;60.70;;;;;;5060472;28;20192;-62
2024/03/09 04:55:30;;;;;;;14.63;9.93;;;8.30;60.00;;;;;;5044453;28;20537;-67
2024/03/09 04:57:56;;;;;;;15.67;9.17;;;8.10;60.50;;;;;;5043901;28;20501;-56
2024/03/09 05:00:24;;;;;;;17.07;9.27;;;8.00;61.10;;;;;;5045220;28;21163;-60
2024/03/09 05:02:53;;;;;;;14.23;9.17;;;7.90;61.40;;;;;;5046841;28;20477;-62
2024/03/09 05:05:19;;;;;;;16.50;10.57;;;7.90;61.20;;;;;;5063946;28;20422;-58
2024/03/09 05:07:46;;;;;;;19.00;9.70;;;8.10;61.20;;;;;;5058057;28;21024;-67
2024/03/09 05:10:23;;;;;;;13.00;9.73;;;8.10;60.70;;;;;;5049365;28;20663;-58
2024/03/09 05:12:56;;;;;;;13.90;9.53;;;8.20;60.70;;;;;;5043974;28;20435;-61
2024/03/09 05:15:23;;;;;;;15.03;9.70;;;8.30;60.30;;;;;;5039746;28;21177;-59
2024/03/09 05:17:49;;;;;;;11.97;9.00;;;8.10;60.60;;;;;;5043149;28;21024;-63
2024/03/09 05:20:20;;;;;;;16.37;10.73;;;8.00;61.50;;;;;;5044368;28;22397;-62
2024/03/09 05:22:48;;;;;;;14.50;9.67;;;8.00;61.20;;;;;;5043454;28;20806;-61
2024/03/09 05:25:14;;;;;;;14.30;10.13;;;7.90;61.50;;;;;;5051048;28;20450;-70
2024/03/09 05:27:43;;;;;;;13.60;8.87;;;7.80;62.00;;;;;;5042446;28;20554;-57
2024/03/09 05:30:14;;;;;;;15.60;10.37;;;7.80;62.30;;;;;;5040707;28;20867;-62
2024/03/09 05:33:06;;;;;;;14.50;11.03;;;8.00;62.10;;;;;;5040761;28;20443;-62
2024/03/09 05:35:34;;;;;;;15.80;10.30;;;8.00;61.40;;;;;;5046765;28;20431;-65
2024/03/09 05:38:00;;;;;;;13.00;10.03;;;7.90;61.70;;;;;;5042407;28;20897;-58
2024/03/09 05:40:27;;;;;;;14.87;10.70;;;7.40;63.30;;;;;;5042329;28;20513;-59
2024/03/09 05:42:55;;;;;;;14.57;10.43;;;7.10;64.40;;;;;;5040369;28;20534;-67
2024/03/09 05:45:22;;;;;;;16.00;10.20;;;7.10;65.60;;;;;;5043047;28;20809;-59
2024/03/09 05:47:50;;;;;;;21.33;10.10;;;7.10;65.30;;;;;;5042850;28;21360;-59
2024/03/09 05:50:19;;;;;;;13.77;9.70;;;7.10;65.20;;;;;;5040114;28;20426;-58
2024/03/09 05:52:49;;;;;;;16.23;11.03;;;7.00;66.00;;;;;;5040151;28;20474;-57
2024/03/09 05:55:21;;;;;;;18.87;11.30;;;6.90;65.60;;;;;;5045341;28;20458;-59
2024/03/09 05:57:51;;;;;;;13.77;9.40;;;6.70;65.40;;;;;;5040267;28;20463;-63
2024/03/09 06:00:17;;;;;;;19.33;10.80;;;6.80;65.40;;;;;;5044489;28;20439;-60
2024/03/09 06:02:49;;;;;;;15.20;10.17;;;6.80;65.30;;;;;;5040737;28;20946;-55
2024/03/09 06:05:15;;;;;;;14.33;10.13;;;6.90;65.10;;;;;;5053701;28;20425;-63
2024/03/09 06:07:44;;;;;;;17.53;10.63;;;6.90;65.40;;;;;;5052532;28;20428;-57
2024/03/09 06:10:19;;;;;;;12.10;9.60;;;6.80;65.20;;;;;;5059329;28;20438;-59
2024/03/09 06:12:52;;;;;;;20.60;10.20;;;6.80;65.60;;;;;;5059460;28;20452;-63
2024/03/09 06:15:19;;;;;;;14.23;10.03;;;7.00;66.20;;;;;;5059237;28;20433;-60
2024/03/09 06:18:00;;;;;;;14.77;9.70;;;7.30;66.40;;;;;;5053613;28;20962;-64
2024/03/09 06:20:32;;;;;;;16.40;9.87;;;8.00;66.60;;;;;;5053644;28;20465;-62
2024/03/09 06:22:57;;;;;;;15.20;10.27;;;8.20;62.50;;;;;;5056407;28;21409;-61
2024/03/09 06:25:23;;;;;;;14.97;10.30;;;8.30;60.90;;;;;;5051134;28;20443;-58
2024/03/09 06:27:53;;;;;;;15.73;10.07;;;8.40;60.60;;;;;;5046965;28;20216;-60
2024/03/09 06:30:19;;;;;;;12.10;9.20;;;8.30;60.80;;;;;;5053137;28;20701;-61
2024/03/09 06:32:46;;;;;;;12.40;9.10;;;8.30;60.80;;;;;;5049739;28;20560;-62
2024/03/09 06:35:13;;;;;;;13.33;10.00;;;8.30;60.30;;;;;;5062170;28;20458;-61
2024/03/09 06:37:39;;;;;;;16.83;11.47;;;8.40;60.90;;;;;;5050881;28;20437;-69
2024/03/09 06:40:06;;;;;;;13.33;10.40;;;8.30;60.10;;;;;;5057117;28;20398;-61
2024/03/09 06:42:32;;;;;;;13.20;10.10;;;8.30;60.30;;;;;;5053338;28;20188;-57
2024/03/09 06:44:59;;;;;;;13.20;9.60;;;8.30;60.70;;;;;;5056857;28;20819;-62
2024/03/09 06:47:24;;;;;;;13.93;9.70;;;8.50;60.20;;;;;;5064667;28;20465;-62
2024/03/09 06:49:52;;;;;;;14.00;9.87;;;8.80;59.70;;;;;;5059379;28;20444;-63
2024/03/09 06:52:18;;;;;;;13.10;9.70;;;9.00;59.60;;;;;;5064093;28;20275;-62
2024/03/09 06:54:45;;;;;;;12.43;9.80;;;8.80;58.80;;;;;;5049800;28;20476;-62
2024/03/09 06:57:10;;;;;;;13.40;9.90;;;9.10;59.00;;;;;;5059408;28;20442;-63
2024/03/09 06:59:42;;;;;;;15.97;10.10;;;9.30;58.40;;;;;;5046991;28;20434;-62
2024/03/09 07:02:08;;;;;;;14.27;10.37;;;9.70;58.00;;;;;;5048305;28;20594;-61
2024/03/09 07:04:34;;;;;;;13.30;9.83;;;9.50;57.60;;;;;;5051770;28;20931;-60
2024/03/09 07:06:59;;;;;;;16.70;10.40;;;9.50;57.60;;;;;;5060420;28;20457;-60
2024/03/09 07:09:25;;;;;;;17.30;10.97;;;9.40;57.60;;;;;;5058823;28;20204;-61
2024/03/09 07:11:53;;;;;;;15.50;10.23;;;9.30;57.90;;;;;;5047830;28;20189;-62
2024/03/09 07:14:21;;;;;;;15.67;11.07;;;9.90;57.90;;;;;;5050092;28;20196;-59
2024/03/09 07:16:47;;;;;;;17.63;11.00;;;10.10;55.70;;;;;;5042525;28;20450;-61
2024/03/09 07:19:16;;;;;;;15.30;10.33;;;10.00;55.80;;;;;;5042833;28;20427;-60
2024/03/09 07:21:42;;;;;;;15.47;10.33;;;10.30;55.70;;;;;;5062146;28;20475;-61
2024/03/09 07:24:07;;;;;;;15.10;12.00;;;10.40;55.00;;;;;;5051086;28;20800;-61
2024/03/09 07:26:37;;;;;;;17.67;11.77;;;10.50;55.10;;;;;;5050436;28;20374;-61
2024/03/09 07:29:03;;;;;;;11.43;10.20;;;10.70;54.60;;;;;;5050737;28;20184;-67
2024/03/09 07:31:29;;;;;;;14.33;10.50;;;10.50;54.30;;;;;;5061580;28;20413;-62
2024/03/09 07:33:56;;;;;;;14.37;11.67;;;10.80;54.70;;;;;;5059489;28;20795;-63
2024/03/09 07:36:22;;;;;;;12.93;9.70;;;11.30;53.80;;;;;;5063325;28;20207;-61
2024/03/09 07:38:48;;;;;;;13.83;11.10;;;11.10;53.50;;;;;;5060851;28;20419;-61
2024/03/09 07:41:16;;;;;;;14.13;11.77;;;11.50;53.10;;;;;;5067348;28;20257;-62
2024/03/09 07:43:42;;;;;;;15.27;10.93;;;11.70;52.70;;;;;;5063591;28;20442;-59
2024/03/09 07:46:08;;;;;;;16.17;11.00;;;12.00;52.20;;;;;;5065126;28;20442;-60
2024/03/09 07:48:34;;;;;;;13.70;11.70;;;12.40;51.20;;;;;;5066376;28;20424;-59
2024/03/09 07:50:59;;;;;;;18.53;13.73;;;12.70;50.80;;;;;;5066586;28;20185;-60
2024/03/09 07:53:25;;;;;;;33.17;20.97;;;13.00;50.10;;;;;;5068298;28;20550;-61
2024/03/09 07:55:52;;;;;;;26.03;18.00;;;13.10;49.40;;;;;;5064639;28;20566;-62
2024/03/09 07:58:18;;;;;;;20.93;14.57;;;13.20;49.00;;;;;;5066945;28;20266;-62
2024/03/09 08:00:45;;;;;;;20.77;13.40;;;13.40;48.80;;;;;;5063049;28;20552;-58
2024/03/09 08:03:12;;;;;;;19.17;12.20;;;13.30;49.10;;;;;;5062251;28;20249;-62
2024/03/09 08:05:38;;;;;;;13.70;11.20;;;13.50;49.10;;;;;;5061437;28;20429;-57
2024/03/09 08:08:04;;;;;;;14.63;11.50;;;13.70;48.40;;;;;;5065036;28;20488;-60
2024/03/09 08:10:31;;;;;;;16.23;11.40;;;13.80;48.10;;;;;;5067990;28;20524;-59
2024/03/09 08:12:57;;;;;;;19.17;13.10;;;14.00;48.50;;;;;;5063175;28;20419;-64
2024/03/09 08:15:24;;;;;;;16.40;12.60;;;14.10;47.90;;;;;;5064498;28;20442;-60
2024/03/09 08:17:51;;;;;;;13.90;11.73;;;14.10;47.70;;;;;;5060936;28;20204;-63
2024/03/09 08:20:21;;;;;;;17.23;12.50;;;14.20;48.00;;;;;;5065782;28;20451;-63
2024/03/09 08:22:47;;;;;;;15.13;12.33;;;14.30;47.40;;;;;;5067115;28;20479;-61
2024/03/09 08:25:15;;;;;;;16.67;11.90;;;14.40;47.10;;;;;;5060415;28;20435;-61
2024/03/09 08:27:42;;;;;;;15.53;12.07;;;14.40;47.10;;;;;;5060938;28;20527;-61
2024/03/09 08:30:18;;;;;;;14.47;11.50;;;14.50;47.10;;;;;;5065256;28;20421;-59
2024/03/09 08:32:48;;;;;;;15.17;11.07;;;14.80;47.70;;;;;;5066634;28;20440;-62
2024/03/09 08:35:19;;;;;;;17.00;11.90;;;15.00;46.70;;;;;;5060003;28;20434;-69
2024/03/09 08:37:45;;;;;;;15.23;12.60;;;15.10;46.40;;;;;;5064817;28;20802;-58
2024/03/09 08:40:17;;;;;;;13.80;11.30;;;15.20;46.50;;;;;;5061037;28;20418;-61
2024/03/09 08:42:48;;;;;;;17.17;12.73;;;15.20;46.10;;;;;;5063086;28;20422;-64
2024/03/09 08:45:15;;;;;;;13.50;11.03;;;15.40;45.70;;;;;;5066036;28;20446;-68
2024/03/09 08:47:41;;;;;;;15.90;12.30;;;15.40;45.80;;;;;;5061236;28;20458;-60
2024/03/09 08:50:11;;;;;;;15.03;12.03;;;15.60;45.70;;;;;;5051279;28;20450;-61
2024/03/09 08:52:40;;;;;;;15.67;11.67;;;15.20;46.10;;;;;;5052397;28;20926;-62
2024/03/09 08:55:12;;;;;;;15.47;12.43;;;15.20;46.10;;;;;;5053322;28;20470;-64
2024/03/09 08:57:42;;;;;;;14.33;11.10;;;15.20;45.80;;;;;;5055437;28;20515;-65
2024/03/09 09:00:09;;;;;;;15.80;12.17;;;15.50;46.50;;;;;;5055373;28;20422;-64
2024/03/09 09:02:38;;;;;;;14.13;10.87;;;15.60;46.10;;;;;;5061778;28;20423;-63
2024/03/09 09:05:13;;;;;;;13.37;11.57;;;15.80;45.20;;;;;;5059526;28;20964;-63
2024/03/09 09:07:42;;;;;;;13.57;11.13;;;15.90;45.30;;;;;;5056394;28;21184;-62
2024/03/09 09:10:11;;;;;;;13.57;12.07;;;15.80;45.10;;;;;;5060577;28;20824;-64
2024/03/09 09:12:40;;;;;;;13.70;10.17;;;15.90;45.20;;;;;;5057858;28;20484;-60
2024/03/09 09:15:12;;;;;;;14.13;11.57;;;16.10;45.90;;;;;;5058655;28;20827;-65
2024/03/09 09:17:42;;;;;;;14.20;12.60;;;16.30;44.80;;;;;;5058610;28;20454;-60
2024/03/09 09:20:11;;;;;;;13.10;11.43;;;16.50;44.60;;;;;;5063654;28;20444;-60
2024/03/09 09:22:37;;;;;;;13.43;11.10;;;16.30;44.50;;;;;;5064201;28;20427;-62
2024/03/09 09:25:04;;;;;;;13.33;11.60;;;16.60;44.60;;;;;;5052009;28;20447;-61
2024/03/09 09:27:30;;;;;;;13.53;11.80;;;16.70;44.90;;;;;;5051874;28;20516;-65
2024/03/09 09:29:55;;;;;;;14.07;11.67;;;16.80;44.00;;;;;;5056506;28;20461;-66
2024/03/09 09:32:24;;;;;;;12.07;10.87;;;16.80;43.60;;;;;;5045606;28;20308;-61
2024/03/09 09:34:50;;;;;;;11.77;10.27;;;16.90;43.60;;;;;;5051574;28;20180;-67
2024/03/09 09:37:16;;;;;;;13.20;10.87;;;17.20;43.20;;;;;;5058883;28;20541;-66
2024/03/09 09:39:43;;;;;;;13.40;11.50;;;17.40;42.40;;;;;;5063088;28;20859;-59
2024/03/09 09:42:09;;;;;;;12.73;11.33;;;17.70;42.10;;;;;;5062526;28;20277;-63
2024/03/09 09:44:36;;;;;;;14.20;10.30;;;17.90;42.60;;;;;;5052746;28;20465;-62
2024/03/09 09:47:02;;;;;;;13.77;11.97;;;17.90;42.80;;;;;;5058701;28;20977;-67
2024/03/09 09:49:29;;;;;;;13.60;12.20;;;18.20;41.80;;;;;;5049044;28;20434;-65
2024/03/09 09:51:58;;;;;;;11.80;9.90;;;18.30;41.30;;;;;;5048663;28;21183;-61
2024/03/09 09:54:29;;;;;;;13.23;11.60;;;18.50;41.60;;;;;;5053113;28;20445;-60
2024/03/09 09:56:55;;;;;;;11.20;9.90;;;18.60;41.00;;;;;;5058827;28;20442;-64
2024/03/09 09:59:24;;;;;;;13.27;11.17;;;18.50;40.30;;;;;;5047594;28;20633;-62
2024/03/09 10:01:50;;;;;;;11.97;10.77;;;18.50;40.10;;;;;;5054024;28;21004;-66
2024/03/09 10:04:16;;;;;;;11.80;10.60;;;18.60;40.00;;;;;;5054002;28;20434;-61
2024/03/09 10:06:42;;;;;;;11.60;10.40;;;18.60;40.20;;;;;;5060251;28;20232;-66
2024/03/09 10:09:08;;;;;;;11.50;10.30;;;18.70;40.50;;;;;;5050042;28;20457;-61
2024/03/09 10:11:33;;;;;;;12.00;10.37;;;18.80;40.40;;;;;;5052983;28;20435;-61
2024/03/09 10:14:00;;;;;;;11.70;9.60;;;18.80;40.30;;;;;;5047020;28;20191;-59
2024/03/09 10:16:30;;;;;;;11.73;9.73;;;18.90;40.60;;;;;;5053856;28;20208;-62
2024/03/09 10:18:57;;;;;;;11.87;9.23;;;19.10;39.80;;;;;;5057541;28;20443;-62
2024/03/09 10:21:37;;;;;;;10.83;9.73;;;19.20;39.40;;;;;;5038786;28;20548;-66
2024/03/09 10:24:07;;;;;;;9.60;8.23;;;19.40;39.10;;;;;;5042273;28;20470;-65
2024/03/09 10:26:33;;;;;;;11.70;9.93;;;19.00;39.50;;;;;;5043702;28;20467;-65
2024/03/09 10:29:00;;;;;;;11.03;9.90;;;18.80;40.20;;;;;;5051787;28;20468;-61
2024/03/09 10:31:26;;;;;;;11.47;10.27;;;18.50;39.20;;;;;;5052571;28;20447;-62
2024/03/09 10:33:56;;;;;;;10.87;9.20;;;18.80;40.00;;;;;;5056551;28;20561;-59
2024/03/09 10:36:26;;;;;;;10.87;9.77;;;18.90;39.80;;;;;;5044409;28;20505;-62
2024/03/09 10:38:55;;;;;;;9.60;8.70;;;19.20;40.10;;;;;;5043620;28;20777;-63
2024/03/09 10:41:27;;;;;;;12.13;10.47;;;19.40;39.90;;;;;;5043627;28;21165;-62
2024/03/09 10:43:55;;;;;;;11.37;9.53;;;19.70;39.00;;;;;;5047356;28;20625;-60
2024/03/09 10:46:29;;;;;;;12.00;9.13;;;20.00;39.00;;;;;;5041346;28;20513;-66
2024/03/09 10:48:57;;;;;;;11.20;10.00;;;20.30;38.70;;;;;;5056165;28;20456;-64
2024/03/09 10:51:46;;;;;;;9.47;8.43;;;20.30;38.70;;;;;;5047526;28;20442;-61
2024/03/09 10:54:17;;;;;;;13.10;8.97;;;20.50;38.00;;;;;;5036249;28;21044;-64
2024/03/09 10:56:44;;;;;;;10.87;9.13;;;20.70;37.80;;;;;;5046376;28;20468;-63
2024/03/09 10:59:13;;;;;;;10.43;8.67;;;21.00;37.80;;;;;;5049764;28;20524;-68
2024/03/09 11:01:40;;;;;;;9.07;8.13;;;21.10;37.60;;;;;;5052316;28;20946;-69
2024/03/09 11:04:07;;;;;;;10.90;9.60;;;21.20;36.60;;;;;;5042256;28;20458;-64
2024/03/09 11:06:34;;;;;;;10.00;8.73;;;21.40;36.60;;;;;;5050064;28;20449;-63
2024/03/09 11:09:03;;;;;;;8.80;7.80;;;21.40;36.30;;;;;;5053572;28;20454;-62
2024/03/09 11:11:31;;;;;;;8.97;7.20;;;21.40;36.10;;;;;;5054111;28;20813;-61
2024/03/09 11:14:03;;;;;;;7.50;6.80;;;21.40;35.50;;;;;;5055846;28;20458;-60
2024/03/09 11:16:29;;;;;;;8.30;7.47;;;21.50;36.00;;;;;;5063832;28;20458;-59
2024/03/09 11:18:55;;;;;;;9.00;8.10;;;21.20;35.40;;;;;;5068137;28;20450;-61
2024/03/09 11:21:29;;;;;;;7.63;6.83;;;20.90;36.30;;;;;;5061168;28;20212;-59
2024/03/09 11:24:07;;;;;;;8.80;7.80;;;21.10;37.20;;;;;;5065955;28;20437;-61
2024/03/09 11:26:52;;;;;;;8.57;6.60;;;21.20;35.70;;;;;;5048787;28;20480;-64
2024/03/09 11:29:22;;;;;;;8.33;7.53;;;21.40;36.20;;;;;;5051923;28;20946;-64
2024/03/09 11:31:50;;;;;;;7.13;6.43;;;21.40;35.70;;;;;;5055100;28;20480;-64
2024/03/09 11:34:23;;;;;;;8.87;7.97;;;21.10;36.60;;;;;;5056290;28;20447;-62
2024/03/09 11:36:56;;;;;;;7.60;6.90;;;21.30;36.50;;;;;;5048095;28;20482;-62
2024/03/09 11:39:31;;;;;;;9.20;8.30;;;20.90;36.30;;;;;;5043553;28;20419;-63
2024/03/09 11:42:00;;;;;;;9.43;8.30;;;20.60;36.70;;;;;;5053363;28;20528;-59
2024/03/09 11:44:33;;;;;;;8.70;7.90;;;19.90;37.50;;;;;;5041350;28;20439;-64
2024/03/09 11:47:00;;;;;;;8.60;7.57;;;19.90;38.20;;;;;;5044547;28;20497;-60
2024/03/09 11:49:27;;;;;;;9.70;7.80;;;20.30;38.20;;;;;;5051538;28;20472;-64
2024/03/09 11:51:54;;;;;;;7.27;6.53;;;20.80;37.30;;;;;;5050205;28;20470;-62
2024/03/09 11:54:20;;;;;;;7.97;6.67;;;21.30;37.20;;;;;;5056080;28;20496;-61
2024/03/09 11:56:46;;;;;;;6.90;6.00;;;21.90;36.70;;;;;;5050313;28;20463;-62
2024/03/09 11:59:12;;;;;;;6.20;5.60;;;22.00;36.50;;;;;;5051717;28;20796;-61
2024/03/09 12:01:39;;;;;;;6.70;5.70;;;22.40;36.80;;;;;;5046445;28;20995;-64
2024/03/09 12:04:06;;;;;;;7.03;6.17;;;22.80;35.90;;;;;;5052199;28;20496;-62
2024/03/09 12:06:31;;;;;;;6.53;5.93;;;23.20;34.40;;;;;;5051269;28;20419;-62
2024/03/09 12:08:58;;;;;;;6.67;6.07;;;23.60;34.30;;;;;;5051415;28;20910;-62
2024/03/09 12:11:28;;;;;;;4.90;4.50;;;24.00;33.40;;;;;;5051851;28;20215;-61
2024/03/09 12:13:55;;;;;;;5.43;4.93;;;24.00;32.80;;;;;;5048094;28;20508;-65
2024/03/09 12:16:23;;;;;;;6.20;5.43;;;24.10;32.50;;;;;;5053160;28;20458;-64
2024/03/09 12:18:50;;;;;;;6.20;5.60;;;24.30;30.90;;;;;;5047807;28;20811;-64
2024/03/09 12:21:17;;;;;;;6.60;5.50;;;24.30;31.30;;;;;;5048236;28;21001;-63
2024/03/09 12:23:52;;;;;;;6.83;6.17;;;24.50;31.70;;;;;;5048704;28;20463;-62
2024/03/09 12:26:19;;;;;;;6.53;5.93;;;24.50;30.00;;;;;;5045840;28;20459;-63
2024/03/09 12:28:46;;;;;;;5.83;5.30;;;24.60;32.00;;;;;;5046100;28;20535;-65
2024/03/09 12:31:15;;;;;;;6.30;5.80;;;24.60;31.30;;;;;;5048558;28;20520;-60
2024/03/09 12:33:42;;;;;;;5.13;4.47;;;24.80;31.00;;;;;;5049327;28;20505;-63
2024/03/09 12:36:09;;;;;;;6.67;4.63;;;24.80;31.00;;;;;;5050125;28;20966;-63
2024/03/09 12:38:38;;;;;;;5.37;4.87;;;24.70;30.90;;;;;;5049212;28;20427;-60